Date,TemperatureHighF,TemperatureAvgF,TemperatureLowF,DewpointHighF,DewpointAvgF,DewpointLowF,HumidityHigh,HumidityAvg,HumidityLow,PressureMaxIn,PressureMinIn,WindSpeedMaxMPH,WindSpeedAvgMPH,GustSpeedMaxMPH,PrecipitationSumIn
2013-1-1,36,32,24,30,25,13,88,78,62,0.00,40.00,5,4,13,0.02
2013-1-2,27,23,18,16,14,12,85,69,57,0.00,40.00,6,3,15,0.01
2013-1-3,31,22,11,20,14,10,97,73,48,0.00,40.00,5,2,16,0.00
2013-1-4,35,30,28,22,20,18,76,66,56,0.00,40.00,7,5,21,0.00
2013-1-5,37,29,23,24,21,18,95,72,55,0.00,40.00,7,4,17,0.05
2013-1-6,42,34,28,30,26,22,89,72,54,0.00,40.00,6,2,15,0.01
2013-1-7,38,34,25,31,28,24,97,80,61,0.00,40.00,5,3,14,0.00
2013-1-8,46,32,24,28,26,22,100,80,46,0.00,40.00,5,2,11,0.00
2013-1-9,44,36,24,37,30,24,100,82,61,0.00,40.00,7,4,18,0.00
2013-1-10,44,37,30,30,27,25,95,70,53,0.00,40.00,6,3,19,0.00
2013-1-11,40,37,30,39,32,25,100,83,64,0.00,40.00,7,5,20,0.29
2013-1-12,52,39,35,51,39,35,100,100,93,0.00,40.00,3,1,7,0.10
2013-1-13,49,46,38,49,46,38,100,100,100,0.00,40.00,8,5,21,0.00
2013-1-14,51,46,38,51,40,28,100,81,60,0.00,40.00,8,3,18,0.12
2013-1-15,36,32,30,31,25,23,90,75,68,0.00,40.00,6,4,15,0.02
2013-1-16,33,31,29,33,31,29,100,100,100,0.00,40.00,5,2,10,0.00
2013-1-17,37,32,30,32,30,28,100,91,73,0.00,40.00,4,2,13,0.23
2013-1-18,32,25,20,29,14,7,98,64,41,0.00,40.00,7,4,15,0.03
2013-1-19,49,38,25,28,21,10,67,51,36,0.00,40.00,7,5,19,0.13
2013-1-20,47,37,23,28,20,8,67,51,32,0.00,40.00,9,6,28,0.03
2013-1-21,26,22,17,23,14,5,100,73,55,0.00,40.00,5,2,14,0.00
2013-1-22,17,11,5,5,-2,-7,66,54,43,0.00,40.00,9,5,24,0.00
2013-1-23,14,7,2,3,-2,-6,86,66,52,0.00,40.00,6,2,16,0.00
2013-1-24,22,13,6,7,2,-3,88,65,37,0.00,40.00,7,4,20,0.00
2013-1-25,17,11,7,10,4,-1,92,72,54,0.00,40.00,5,3,13,0.00
2013-1-26,25,15,6,11,8,2,93,78,47,0.00,40.00,5,2,12,0.05
2013-1-27,32,14,-1,15,7,-5,90,75,48,0.00,40.00,5,2,11,0.02
2013-1-28,33,29,18,33,27,15,100,93,66,0.00,40.00,6,3,17,0.11
2013-1-29,49,40,33,49,40,33,100,100,100,0.00,40.00,8,3,18,0.21
2013-1-30,60,52,48,60,52,48,100,100,100,0.00,40.00,10,5,19,0.61
2013-1-31,51,30,23,51,20,11,100,65,48,0.00,40.00,11,8,30,1.16
2013-2-1,24,21,15,15,8,2,72,58,44,0.00,40.00,9,6,27,0.01
2013-2-2,20,16,8,18,8,2,93,72,56,0.00,40.00,6,3,17,0.00
2013-2-3,28,22,16,23,18,9,99,84,63,0.00,40.00,8,2,21,0.02
2013-2-4,25,21,17,22,12,8,96,67,47,0.00,40.00,7,4,21,0.02
2013-2-5,32,28,24,29,25,22,100,92,82,0.00,40.00,5,2,10,0.02
2013-2-6,36,28,20,28,22,16,100,79,47,0.00,40.00,6,3,15,0.01
2013-2-7,31,24,16,20,15,12,92,69,53,0.00,40.00,9,5,19,0.01
2013-2-8,35,32,28,33,30,20,100,95,73,0.00,40.00,13,6,23,0.01
2013-2-9,29,22,18,26,15,11,100,73,59,0.00,40.00,9,6,26,0.23
2013-2-10,41,25,7,16,10,2,94,58,20,0.00,40.00,8,3,19,0.02
2013-2-11,42,37,32,42,34,15,100,90,46,0.00,40.00,9,5,23,0.11
2013-2-12,38,34,26,27,24,22,93,66,55,0.00,40.00,8,5,23,0.03
2013-2-13,39,30,21,32,26,21,100,88,61,0.00,40.00,6,2,13,0.00
2013-2-14,42,34,27,32,30,27,100,85,61,0.00,40.00,6,2,13,0.11
2013-2-15,45,39,32,34,29,26,100,70,50,0.00,40.00,6,3,16,0.02
2013-2-16,33,29,25,32,22,11,100,78,54,0.00,40.00,6,2,17,0.15
2013-2-17,25,21,16,14,8,1,78,57,42,0.00,40.00,10,6,25,0.03
2013-2-18,35,23,13,15,8,3,66,51,35,0.00,40.00,8,5,20,0.00
2013-2-19,36,33,30,36,26,11,100,77,41,0.00,40.00,8,6,20,0.29
2013-2-20,28,23,19,20,12,8,73,61,54,0.00,40.00,8,6,26,0.01
2013-2-21,33,24,19,16,13,9,73,63,48,0.00,40.00,8,6,20,0.00
2013-2-22,31,26,19,26,20,15,92,79,66,0.00,40.00,10,5,18,0.00
2013-2-23,41,35,30,41,34,27,100,99,87,0.00,40.00,7,3,14,0.00
2013-2-24,35,32,29,35,27,18,100,82,59,0.00,40.00,7,4,19,0.01
2013-2-25,41,32,26,30,24,19,95,74,51,0.00,40.00,6,3,12,0.01
2013-2-26,38,32,25,35,29,25,100,89,67,0.00,40.00,20,9,38,0.25
2013-2-27,39,37,34,39,37,34,100,100,100,0.00,40.00,20,8,38,0.48
2013-2-28,39,34,32,35,32,29,100,94,71,0.00,40.00,5,2,16,0.06
2013-3-1,37,34,31,33,29,22,100,80,64,0.00,40.00,5,4,14,0.02
2013-3-2,31,29,26,25,22,20,95,76,65,0.00,40.00,6,4,16,0.01
2013-3-3,32,27,24,22,18,17,81,70,55,0.00,40.00,7,5,22,0.00
2013-3-4,34,28,23,23,18,14,94,68,57,0.00,40.00,9,6,21,0.00
2013-3-5,40,31,27,28,24,21,94,76,56,0.00,40.00,7,4,17,0.00
2013-3-6,40,37,33,30,29,27,84,73,63,0.00,40.00,18,11,30,0.00
2013-3-7,40,36,32,27,24,21,71,62,49,0.00,40.00,7,6,24,0.00
2013-3-8,40,33,27,27,23,20,98,68,54,0.00,40.00,8,6,23,0.00
2013-3-9,54,37,25,28,24,21,90,62,27,0.00,40.00,5,2,14,0.00
2013-3-10,56,44,28,29,24,19,94,53,27,0.00,40.00,9,5,20,0.00
2013-3-11,54,46,38,49,38,29,94,73,45,0.00,40.00,12,7,34,0.00
2013-3-12,52,47,38,52,45,30,100,93,73,0.00,40.00,9,6,28,0.92
2013-3-13,41,36,29,33,27,16,92,71,42,0.00,40.00,7,4,22,0.02
2013-3-14,36,30,25,21,14,9,81,52,33,0.00,40.00,9,7,26,0.00
2013-3-15,44,34,19,31,22,11,88,61,49,0.00,40.00,8,4,19,0.00
2013-3-16,40,32,29,32,28,20,100,86,60,0.00,40.00,8,4,19,0.09
2013-3-17,35,30,27,29,22,18,100,74,52,0.00,40.00,5,3,12,0.06
2013-3-18,32,27,21,31,21,13,100,79,52,0.00,40.00,15,7,30,0.02
2013-3-19,46,37,30,36,29,18,100,77,36,0.00,40.00,9,5,25,0.26
2013-3-20,39,32,27,23,18,16,71,57,40,0.00,40.00,8,4,19,0.11
2013-3-21,31,27,22,19,14,8,79,59,44,0.00,40.00,7,4,19,0.00
2013-3-22,36,29,24,23,19,15,96,68,53,0.00,40.00,7,5,20,0.00
2013-3-23,42,34,28,22,20,18,72,57,40,0.00,40.00,7,5,24,0.00
2013-3-24,43,35,26,25,21,18,79,57,40,0.00,40.00,7,4,13,0.00
2013-3-25,36,34,31,35,31,24,100,90,61,0.00,40.00,12,5,19,0.16
2013-3-26,47,37,30,36,31,28,100,82,48,0.00,40.00,7,3,20,0.05
2013-3-27,44,38,31,35,29,24,100,71,45,0.00,40.00,6,4,16,0.01
2013-3-28,43,41,38,34,27,26,84,57,50,0.00,40.00,6,4,14,0.01
2013-3-29,48,41,34,33,29,25,86,62,42,0.00,40.00,6,4,17,0.00
2013-3-30,54,40,25,33,26,17,100,66,23,0.00,40.00,6,2,16,0.00
2013-3-31,49,42,32,46,36,25,100,81,49,0.00,40.00,8,4,22,0.15
2013-4-1,51,43,32,44,32,11,100,71,28,0.00,40.00,9,5,22,0.09
2013-4-2,39,32,25,17,13,10,67,47,31,0.00,40.00,10,5,24,0.01
2013-4-3,39,32,24,17,13,9,74,46,29,0.00,40.00,8,4,23,0.00
2013-4-4,52,37,22,19,16,12,76,45,25,0.00,40.00,6,3,16,0.00
2013-4-5,57,44,30,26,20,14,77,41,20,0.00,40.00,8,4,24,0.00
2013-4-6,53,39,28,22,16,12,63,41,19,0.00,40.00,7,4,14,0.00
2013-4-7,61,50,39,41,32,17,68,50,35,0.00,40.00,12,8,27,0.00
2013-4-8,73,60,39,48,43,39,100,59,30,0.00,40.00,5,3,14,0.00
2013-4-9,79,66,53,54,48,42,88,55,28,0.00,40.00,8,4,22,0.00
2013-4-10,82,69,57,63,56,52,100,68,43,0.00,40.00,7,4,27,0.50
2013-4-11,59,54,48,59,54,47,100,99,95,0.00,40.00,13,6,25,0.47
2013-4-12,47,45,43,47,45,43,100,100,100,0.00,40.00,22,11,33,0.35
2013-4-13,54,45,38,45,37,33,100,75,50,0.00,40.00,7,3,18,0.02
2013-4-14,57,46,36,43,33,27,100,64,36,0.00,40.00,7,3,19,0.00
2013-4-15,63,52,45,47,40,31,86,64,53,0.00,40.00,12,6,21,0.00
2013-4-16,66,57,50,60,53,45,99,87,75,0.00,40.00,9,6,21,0.00
2013-4-17,66,56,48,60,44,34,100,69,30,0.00,40.00,7,4,20,0.20
2013-4-18,59,55,47,59,48,36,100,79,47,0.00,40.00,12,8,30,0.01
2013-4-19,69,62,47,66,60,45,100,96,84,0.00,40.00,11,6,37,0.76
2013-4-20,50,45,39,45,30,20,95,58,38,0.00,40.00,9,6,25,0.78
2013-4-21,50,40,29,30,23,20,73,53,33,0.00,40.00,9,4,21,0.00
2013-4-22,53,44,34,35,31,26,100,64,40,0.00,40.00,17,7,28,0.00
2013-4-23,61,47,39,46,38,32,97,73,43,0.00,40.00,11,6,19,0.00
2013-4-24,68,54,43,60,50,40,100,87,59,0.00,40.00,8,5,25,0.23
2013-4-25,59,47,39,40,32,26,81,58,29,0.00,40.00,7,4,24,0.23
2013-4-26,59,47,35,38,30,21,100,59,23,0.00,40.00,6,3,16,0.00
2013-4-27,69,53,37,41,33,28,90,53,26,0.00,40.00,7,3,14,0.00
2013-4-28,66,58,46,45,38,33,77,50,32,0.00,40.00,8,5,22,0.00
2013-4-29,56,53,50,56,49,33,100,88,49,0.00,40.00,9,6,20,0.14
2013-4-30,65,58,52,53,50,35,100,77,50,0.00,40.00,8,6,20,0.03
2013-5-1,70,57,42,40,32,25,83,43,21,0.00,40.00,7,5,20,0.01
2013-5-2,72,58,41,47,42,38,100,61,29,0.00,40.00,12,4,19,0.00
2013-5-3,68,57,45,48,40,34,100,58,31,0.00,40.00,11,6,24,0.00
2013-5-4,69,56,40,47,41,36,100,63,35,0.00,40.00,10,5,22,0.00
2013-5-5,69,56,41,45,39,28,100,58,22,0.00,40.00,11,6,19,0.00
2013-5-6,69,56,38,55,47,38,100,76,52,0.00,40.00,11,4,20,0.00
2013-5-7,71,61,50,61,55,50,100,83,51,0.00,40.00,15,7,24,0.00
2013-5-8,64,59,51,64,59,51,100,100,95,0.00,40.00,13,6,21,1.30
2013-5-9,67,57,50,62,55,50,100,92,69,0.00,40.00,5,2,11,0.25
2013-5-10,76,63,50,66,57,50,100,83,46,0.00,40.00,6,2,14,0.10
2013-5-11,67,62,54,65,61,54,100,97,78,0.00,40.00,6,3,13,0.36
2013-5-12,56,51,40,56,40,26,100,69,32,0.00,40.00,9,4,28,0.15
2013-5-13,52,42,34,35,29,22,100,63,34,0.00,40.00,7,4,19,0.01
2013-5-14,59,45,29,38,30,23,100,61,25,0.00,40.00,5,3,14,0.00
2013-5-15,73,59,49,60,49,40,100,69,58,0.00,40.00,7,5,21,0.00
2013-5-16,81,59,53,60,28,-100,100,70,25,0.00,40.00,7,3,16,0.00
2013-5-17,71,59,48,48,36,-100,91,57,32,0.00,40.00,6,4,16,0.00
2013-5-18,66,60,54,57,49,44,95,68,54,0.00,40.00,9,5,18,0.00
2013-5-19,61,59,57,61,59,57,100,100,100,0.00,40.00,9,6,18,0.00
2013-5-20,78,68,59,69,64,59,100,90,66,0.00,40.00,5,3,12,0.00
2013-5-21,87,74,61,73,67,61,100,82,49,0.00,40.00,5,3,13,0.00
2013-5-22,88,76,65,74,67,60,100,78,40,0.00,40.00,7,3,20,0.02
2013-5-23,76,68,61,70,66,60,100,94,75,0.00,40.00,6,3,15,0.49
2013-5-24,60,50,41,60,48,39,100,95,74,0.00,40.00,9,5,24,0.36
2013-5-25,58,49,41,42,36,32,99,64,39,0.00,40.00,10,6,27,0.20
2013-5-26,66,54,41,41,36,31,87,54,29,0.00,40.00,7,4,22,0.06
2013-5-27,69,55,36,50,40,35,100,66,29,0.00,40.00,5,2,11,0.01
2013-5-28,61,56,51,61,55,47,100,97,66,0.00,40.00,7,4,16,0.02
2013-5-29,84,71,61,71,65,61,100,83,54,0.00,40.00,6,4,18,0.21
2013-5-30,86,74,59,70,65,59,100,80,48,0.00,40.00,5,2,12,0.01
2013-5-31,89,76,64,72,66,61,100,74,41,0.00,40.00,9,3,18,0.00
2013-6-1,89,77,65,71,67,64,100,73,49,0.00,40.00,5,3,13,0.00
2013-6-2,83,76,71,71,68,63,92,76,55,0.00,40.00,6,4,17,0.00
2013-6-3,74,70,63,71,63,49,100,79,60,0.00,40.00,6,3,16,0.00
2013-6-4,73,60,44,51,45,42,100,63,34,0.00,40.00,5,3,16,0.00
2013-6-5,76,62,45,51,46,41,96,62,34,0.00,40.00,6,3,14,0.00
2013-6-6,64,61,57,62,56,50,100,84,60,0.00,40.00,9,6,21,0.01
2013-6-7,64,62,60,64,62,60,100,100,99,0.00,40.00,10,6,20,0.17
2013-6-8,71,63,56,65,61,54,100,95,72,0.00,40.00,5,2,12,0.17
2013-6-9,80,64,51,65,57,51,100,81,44,0.00,40.00,4,2,11,0.02
2013-6-10,68,66,63,68,66,63,100,99,87,0.00,40.00,10,6,18,0.05
2013-6-11,73,68,62,69,66,61,100,93,80,0.00,40.00,7,3,17,1.42
2013-6-12,76,67,60,64,60,55,100,81,50,0.00,40.00,5,3,17,0.39
2013-6-13,74,66,58,70,64,57,100,95,78,0.00,40.00,9,5,22,0.77
2013-6-14,72,62,55,60,56,54,100,84,57,0.00,40.00,6,4,20,0.26
2013-6-15,77,64,51,62,56,51,100,79,42,0.00,40.00,5,2,15,0.01
2013-6-16,76,66,55,68,60,53,100,83,52,0.00,40.00,7,3,18,0.00
2013-6-17,83,70,59,69,63,58,100,82,42,0.00,40.00,5,2,13,0.00
2013-6-18,80,68,57,67,62,57,100,83,58,0.00,40.00,8,3,13,0.00
2013-6-19,75,65,56,61,53,47,95,68,37,0.00,40.00,8,4,16,0.00
2013-6-20,78,63,50,62,55,50,100,79,49,0.00,40.00,6,3,12,0.00
2013-6-22,84,79,72,69,65,61,86,64,50,0.00,40.00,5,3,13,0.00
2013-6-23,87,78,66,72,68,63,100,75,47,0.00,40.00,4,3,13,0.00
2013-6-24,88,74,64,76,69,64,100,87,54,0.00,40.00,6,2,15,0.14
2013-6-25,85,73,64,75,70,64,100,90,65,0.00,40.00,7,2,19,0.15
2013-6-26,80,70,62,72,67,62,100,91,70,0.00,40.00,3,1,11,0.09
2013-6-27,82,71,63,75,68,63,100,93,62,0.00,40.00,7,3,13,0.71
2013-6-28,80,70,64,74,68,63,100,95,64,0.00,40.00,5,2,14,1.21
2013-6-29,80,69,61,69,64,61,100,86,52,0.00,40.00,5,2,14,0.07
2013-6-30,81,71,61,75,69,61,100,95,74,0.00,40.00,6,2,13,0.89
2013-7-1,77,72,68,77,72,68,100,100,96,0.00,40.00,7,3,14,0.99
2013-7-2,81,74,70,77,73,70,100,96,77,0.00,40.00,5,3,16,0.27
2013-7-3,81,74,71,75,73,71,100,95,74,0.00,40.00,5,2,12,0.06
2013-7-4,86,78,71,77,74,71,100,89,64,0.00,40.00,5,2,14,0.01
2013-7-5,89,79,70,78,74,70,100,85,59,0.00,40.00,5,3,14,0.00
2013-7-6,89,77,69,77,73,69,100,88,57,0.00,40.00,5,2,10,0.00
2013-7-7,89,77,66,76,71,66,100,85,54,0.00,40.00,5,2,22,0.03
2013-7-8,82,70,63,73,67,63,100,92,62,0.00,40.00,5,1,16,0.22
2013-7-9,83,72,64,75,70,64,100,93,63,0.00,40.00,6,2,12,0.01
2013-7-10,83,74,69,76,68,-100,100,88,71,0.00,40.00,5,3,14,0.01
2013-7-11,82,72,64,69,66,61,100,86,49,0.00,40.00,5,2,13,0.01
2013-7-12,77,69,62,73,66,62,100,92,77,0.00,40.00,7,3,13,0.07
2013-7-13,81,72,67,75,70,67,100,95,76,0.00,40.00,10,5,16,0.15
2013-7-14,87,78,70,78,73,70,100,86,58,0.00,40.00,5,2,14,0.01
2013-7-15,91,77,66,79,72,66,100,87,56,0.00,40.00,5,2,12,0.01
2013-7-16,90,83,70,72,69,66,100,67,49,0.00,40.00,5,3,15,0.00
2013-7-17,92,78,66,78,70,66,100,79,44,0.00,40.00,3,2,12,0.00
2013-7-18,93,82,71,81,73,68,100,77,50,0.00,40.00,4,2,10,0.00
2013-7-19,91,79,68,78,74,68,100,84,59,0.00,40.00,6,2,14,0.00
2013-7-20,88,76,71,76,70,-100,100,87,56,0.00,40.00,7,3,16,0.07
2013-7-21,87,74,66,74,66,54,100,81,33,0.00,40.00,6,2,11,0.13
2013-7-22,83,75,69,74,72,69,100,90,66,0.00,40.00,8,4,16,0.01
2013-7-23,82,74,67,75,72,67,100,93,73,0.00,40.00,6,3,13,0.00
2013-7-24,75,67,60,67,61,53,100,83,56,0.00,40.00,6,3,18,0.00
2013-7-25,74,61,49,64,56,49,100,86,64,0.00,40.00,6,2,10,0.00
2013-7-26,80,66,54,63,56,53,100,78,39,0.00,40.00,4,2,13,0.00
2013-7-27,79,68,58,74,66,58,100,93,71,0.00,40.00,7,3,18,0.00
2013-7-28,78,70,66,73,69,65,100,95,71,0.00,40.00,6,2,13,0.00
2013-7-29,76,65,55,65,59,55,100,82,49,0.00,40.00,5,2,12,0.00
2013-7-30,76,63,52,62,58,52,100,84,54,0.00,40.00,5,2,13,0.00
2013-7-31,80,68,56,69,62,56,100,82,51,0.00,40.00,6,3,10,0.00
2013-8-1,76,70,66,73,69,66,100,97,87,0.00,40.00,5,2,12,0.00
2013-8-2,78,69,60,68,63,59,100,84,52,0.00,40.00,5,2,13,0.00
2013-8-3,75,66,61,70,65,61,100,97,75,0.00,40.00,7,2,14,0.00
2013-8-4,74,63,54,62,57,54,100,83,52,0.00,40.00,6,2,19,0.00
2013-8-5,73,61,51,60,55,50,100,83,47,0.00,40.00,4,2,10,0.00
2013-8-6,74,65,54,64,59,54,100,83,61,0.00,40.00,7,4,18,0.00
2013-8-7,71,67,64,71,67,64,100,100,100,0.00,40.00,6,4,15,0.00
2013-8-8,82,73,65,76,71,65,100,94,75,0.00,40.00,5,3,13,0.00
2013-8-9,81,75,71,78,74,70,100,97,85,0.00,40.00,5,2,12,0.00
2013-8-10,81,71,62,70,65,60,100,83,55,0.00,40.00,5,3,14,0.00
2013-8-11,80,67,56,71,62,56,100,87,58,0.00,40.00,4,2,8,0.00
2013-8-12,81,71,64,70,65,59,100,83,48,0.00,40.00,4,2,12,0.00
2013-8-13,80,70,65,72,65,-100,100,87,69,0.00,40.00,6,3,17,0.00
2013-8-14,68,59,52,54,49,-100,100,73,55,0.00,40.00,6,4,18,0.00
2013-8-15,73,53,46,58,38,-100,100,78,43,0.00,40.00,5,2,20,0.00
2013-8-16,77,60,51,59,50,-100,100,82,43,0.00,40.00,4,2,8,0.00
2013-8-17,78,64,53,65,58,53,100,84,46,0.00,40.00,5,2,9,0.00
2013-8-18,71,64,59,65,62,59,100,92,68,0.00,40.00,5,2,8,0.00
2013-8-21,85,70,58,72,64,58,100,84,50,0.00,40.00,4,2,9,0.00
2013-8-22,82,74,65,74,70,65,100,90,70,0.00,40.00,5,2,21,0.00
2013-8-23,77,67,57,69,64,57,100,91,61,0.00,40.00,4,1,12,0.00
2013-8-24,78,64,52,62,56,52,100,81,42,0.00,40.00,4,2,10,0.00
2013-8-25,79,66,52,63,57,52,100,78,42,0.00,40.00,5,3,12,0.00
2013-8-26,83,71,63,72,65,59,100,82,58,0.00,40.00,5,2,14,0.00
2013-8-27,83,72,66,71,68,66,100,90,63,0.00,40.00,4,2,12,0.00
2013-8-28,75,72,68,75,72,68,100,100,99,0.00,40.00,9,5,11,0.00
2013-8-29,84,72,64,73,68,64,100,90,59,0.00,40.00,6,2,10,0.00
2013-8-30,85,74,64,73,70,64,100,88,58,0.00,40.00,5,2,9,0.00
2013-8-31,82,76,69,76,73,69,100,91,75,0.00,40.00,5,3,13,0.00
2013-9-1,84,76,69,78,73,69,100,93,73,0.00,40.00,4,1,10,0.00
2013-9-2,84,74,68,78,72,68,100,94,64,0.00,40.00,4,2,10,0.00
2013-9-3,74,69,64,68,61,56,100,79,54,0.00,40.00,7,3,16,0.00
2013-9-4,78,64,53,62,58,53,100,82,49,0.00,40.00,7,3,15,0.00
2013-9-5,74,63,55,62,54,46,100,75,38,0.00,40.00,6,3,19,0.00
2013-9-6,69,56,42,50,44,39,100,70,33,0.00,40.00,5,2,16,0.00
2013-9-7,77,61,47,60,51,47,100,74,38,0.00,40.00,5,3,10,0.00
2013-9-17,66,52,39,51,43,39,100,76,42,0.00,40.00,6,4,16,0.00
2013-9-18,54,46,43,48,46,43,100,99,80,0.00,40.00,6,5,9,0.00
2013-9-19,75,59,45,61,52,45,100,81,44,0.00,40.00,6,3,9,0.00
2013-9-20,77,64,53,63,58,53,100,83,53,0.00,40.00,5,3,13,0.00
2013-9-21,68,62,58,66,62,58,100,98,88,0.00,40.00,7,4,19,0.00
2013-9-22,63,57,50,58,50,45,100,80,53,0.00,40.00,6,4,17,0.00
2013-9-23,61,52,44,46,43,41,100,73,55,0.00,40.00,6,4,18,0.00
2013-9-24,69,51,37,50,44,37,100,82,45,0.00,40.00,4,2,10,0.00
2013-9-25,71,53,40,54,47,40,100,84,46,0.00,40.00,5,2,12,0.00
2013-9-26,73,57,44,60,52,44,100,85,49,0.00,40.00,4,2,8,0.00
2013-9-27,71,61,54,58,54,50,100,81,50,0.00,40.00,6,3,13,0.00
2013-9-28,70,60,51,58,54,50,100,85,49,0.00,40.00,7,3,14,0.00
2013-9-29,70,57,48,58,51,48,100,84,49,0.00,40.00,7,3,17,0.00
2013-9-30,71,58,49,58,54,49,100,88,54,0.00,40.00,7,3,9,0.00
2013-10-3,79,65,53,66,60,53,100,87,54,0.00,40.00,4,2,8,0.00
2013-10-4,81,68,60,69,65,60,100,91,61,0.00,40.00,5,2,10,0.00
2013-10-5,81,69,60,70,65,60,100,89,59,0.00,40.00,6,2,13,0.00
2013-10-6,74,70,67,70,69,67,100,98,86,0.00,40.00,11,6,22,0.00
2013-10-7,70,62,47,70,62,47,100,100,97,0.00,40.00,9,4,22,0.00
2013-10-8,65,52,42,51,46,42,100,84,47,0.00,40.00,6,2,15,0.00
2013-10-9,61,50,42,47,44,41,100,82,47,0.00,40.00,9,3,14,0.00
2013-10-17,70,63,59,65,60,54,100,92,61,0.00,40.00,8,3,19,0.00
2013-10-18,59,51,42,57,46,40,100,83,51,0.00,40.00,6,4,20,0.00
2013-10-19,60,49,40,53,45,40,100,89,54,0.00,40.00,7,3,17,0.00
2013-10-20,57,47,38,49,40,36,100,79,48,0.00,40.00,7,3,19,0.00
2013-10-21,64,50,38,48,39,38,100,71,39,0.00,40.00,7,4,17,0.00
2013-10-22,58,51,37,48,41,31,90,72,36,0.00,40.00,6,4,19,0.00
2013-10-23,51,39,33,38,35,32,100,88,48,0.00,40.00,5,2,10,0.00
2013-10-24,46,39,31,36,31,27,100,76,49,0.00,40.00,7,3,20,0.00
2013-10-25,49,39,31,35,33,31,100,81,54,0.00,40.00,5,3,15,0.00
2013-10-26,52,41,30,32,29,26,100,69,38,0.00,40.00,7,3,19,0.21
2013-10-27,50,44,34,36,33,30,98,67,47,0.00,40.00,7,3,17,0.01
2013-10-28,57,41,29,40,33,-100,100,80,44,0.00,40.00,5,2,12,0.64
2013-10-29,55,45,33,40,37,33,100,77,50,0.00,40.00,4,2,11,0.04
2013-10-30,65,53,46,52,47,35,100,84,49,0.00,40.00,5,4,13,0.00
2013-10-31,61,56,51,61,56,51,100,100,99,0.00,40.00,8,5,18,0.15
2013-11-1,68,60,45,64,55,45,100,87,43,0.00,40.00,9,5,25,0.48
2013-11-2,60,49,42,49,44,41,100,86,51,0.00,40.00,5,2,12,0.02
2013-11-3,47,40,30,45,30,20,95,69,45,0.00,40.00,7,5,19,0.01
2013-11-4,44,33,22,23,20,15,93,62,32,0.00,40.00,5,2,12,0.14
2013-11-5,52,43,34,43,35,23,94,76,59,0.00,40.00,6,3,14,0.02
2013-11-6,58,53,48,53,49,45,97,87,73,0.00,40.00,7,4,17,0.00
2013-11-7,57,49,38,54,47,28,100,92,70,0.00,40.00,6,4,20,0.64
2013-11-8,45,38,33,36,29,27,100,72,51,0.00,40.00,8,5,24,0.01
2013-11-9,47,40,28,31,28,26,95,65,46,0.00,40.00,6,3,15,0.01
2013-11-10,52,44,39,37,31,27,85,59,45,0.00,40.00,8,5,27,0.01
2013-11-11,47,42,29,34,30,28,100,65,49,0.00,40.00,6,3,16,0.00
2013-11-12,46,32,26,39,21,12,100,66,43,0.00,40.00,8,5,19,0.06
2013-11-13,36,28,24,22,17,11,83,62,48,0.00,40.00,7,4,19,0.01
2013-11-14,50,36,24,23,18,12,82,53,21,0.00,40.00,6,3,16,0.00
2013-11-15,55,42,30,33,25,19,89,57,25,0.00,40.00,4,2,12,0.00
2013-11-16,59,48,37,48,41,30,100,79,49,0.00,40.00,7,4,18,0.02
2013-11-17,57,53,48,57,53,48,100,100,100,0.00,40.00,7,4,19,0.03
2013-11-18,59,52,44,59,38,27,100,61,38,0.00,40.00,7,5,23,0.36
2013-11-19,43,36,26,28,24,21,88,62,49,0.00,40.00,9,5,26,0.02
2013-11-20,45,32,27,23,18,8,82,59,22,0.00,40.00,9,3,14,0.00
2013-11-21,44,36,25,38,28,14,84,72,46,0.00,40.00,6,3,13,0.00
2013-11-22,52,47,43,49,46,39,100,95,82,0.00,40.00,7,2,15,0.05
2013-11-23,45,34,24,45,24,3,99,68,47,0.00,40.00,8,5,25,0.02
2013-11-24,25,20,17,5,2,-2,51,44,33,0.00,40.00,9,6,28,0.00
2013-11-25,31,23,15,13,11,8,86,61,39,0.00,40.00,6,4,17,0.00
2013-11-26,41,31,27,38,25,10,100,83,45,0.00,40.00,23,4,33,1.08
2013-11-27,43,33,26,43,31,18,100,91,66,0.00,40.00,23,6,33,0.74
2013-11-28,27,25,23,21,18,16,80,72,65,0.00,40.00,9,4,23,0.02
2013-11-29,31,26,18,23,19,16,97,77,61,0.00,40.00,5,2,16,0.00
2013-11-30,32,24,13,25,18,12,100,80,53,0.00,40.00,7,4,16,0.00
2013-12-1,39,32,24,31,27,24,100,86,64,0.00,40.00,3,1,10,0.00
2013-12-2,45,37,32,35,32,30,97,84,62,0.00,40.00,4,1,7,0.00
2013-12-3,49,38,31,37,34,31,100,88,58,0.00,40.00,4,1,8,0.00
2013-12-12,24,20,15,18,8,2,92,60,41,0.00,40.00,7,4,20,0.01
2013-12-13,33,24,14,20,12,4,80,61,45,0.00,40.00,7,3,17,0.00
2013-12-14,27,25,23,26,23,20,100,91,76,0.00,40.00,13,7,26,0.00
2013-12-15,33,28,25,32,26,20,100,92,75,0.00,40.00,8,3,17,0.01
2013-12-16,27,19,12,18,9,7,88,66,47,0.00,40.00,6,4,19,0.01
2013-12-17,27,21,15,24,18,11,100,90,67,0.00,40.00,9,4,19,0.00
2013-12-18,32,25,16,22,19,16,100,80,58,0.00,40.00,7,3,18,0.01
2013-12-19,48,33,18,33,26,17,99,77,44,0.00,40.00,8,3,16,0.26
2013-12-20,52,41,32,34,33,30,100,76,50,0.00,40.00,5,3,14,0.01
2013-12-21,56,54,53,48,46,45,84,75,66,0.00,40.00,5,4,13,0.02
2013-12-22,63,60,55,63,59,55,100,97,87,0.00,40.00,6,4,18,0.09
2013-12-23,58,48,33,57,45,24,100,92,69,0.00,40.00,9,4,24,0.37
2013-12-24,32,27,21,26,20,9,99,75,59,0.00,40.00,7,4,18,0.01
2013-12-25,24,19,13,12,8,4,75,63,50,0.00,40.00,5,4,14,0.00
2013-12-26,34,26,21,26,21,13,100,79,64,0.00,40.00,7,4,18,0.06
2013-12-28,51,35,24,31,27,24,100,78,41,0.00,40.00,6,2,17,0.00
2013-12-29,38,35,31,38,35,31,100,99,95,0.00,40.00,5,2,15,0.88
2013-12-30,39,32,22,39,26,13,100,80,61,0.00,40.00,8,4,20,0.01
2013-12-31,28,22,19,24,14,8,87,68,54,0.00,40.00,8,4,24,0.00
2014-1-1,29,25,20,24,19,11,84,78,69,0.00,40.00,6,2,11,0.00
2014-1-2,28,25,19,26,23,19,100,93,76,0.00,40.00,10,7,17,0.00